sensor_id;sensor_type;location;lat;lon;timestamp;temperature;humidity
18287;DHT22;9269;50.838;12.094;2023-03-23T00:00:03;16.20;34.00
18287;DHT22;9269;50.838;12.094;2023-03-23T00:02:33;16.10;34.00
18287;DHT22;9269;50.838;12.094;2023-03-23T00:05:05;16.20;34.20
18287;DHT22;9269;50.838;12.094;2023-03-23T00:07:33;16.10;33.90
18287;DHT22;9269;50.838;12.094;2023-03-23T00:10:01;16.10;34.00
18287;DHT22;9269;50.838;12.094;2023-03-23T00:12:30;16.10;34.20
18287;DHT22;9269;50.838;12.094;2023-03-23T00:15:02;16.10;34.10
18287;DHT22;9269;50.838;12.094;2023-03-23T00:17:31;16.00;33.90
18287;DHT22;9269;50.838;12.094;2023-03-23T00:20:01;16.00;33.70
18287;DHT22;9269;50.838;12.094;2023-03-23T00:22:33;16.10;33.60
18287;DHT22;9269;50.838;12.094;2023-03-23T00:25:03;16.10;34.00
18287;DHT22;9269;50.838;12.094;2023-03-23T00:27:31;16.10;34.10
18287;DHT22;9269;50.838;12.094;2023-03-23T00:29:58;16.10;34.10
18287;DHT22;9269;50.838;12.094;2023-03-23T00:32:27;16.00;34.10
18287;DHT22;9269;50.838;12.094;2023-03-23T00:34:55;16.00;33.80
18287;DHT22;9269;50.838;12.094;2023-03-23T00:37:24;16.00;34.10
18287;DHT22;9269;50.838;12.094;2023-03-23T00:39:52;16.00;33.90
18287;DHT22;9269;50.838;12.094;2023-03-23T00:42:23;16.00;33.80
18287;DHT22;9269;50.838;12.094;2023-03-23T00:44:51;16.00;33.80
18287;DHT22;9269;50.838;12.094;2023-03-23T00:47:27;16.00;33.70
18287;DHT22;9269;50.838;12.094;2023-03-23T00:49:56;15.90;33.60
18287;DHT22;9269;50.838;12.094;2023-03-23T00:52:23;16.00;34.00
18287;DHT22;9269;50.838;12.094;2023-03-23T00:54:51;16.00;33.90
18287;DHT22;9269;50.838;12.094;2023-03-23T00:57:19;15.90;34.00
18287;DHT22;9269;50.838;12.094;2023-03-23T00:59:50;15.90;33.90
18287;DHT22;9269;50.838;12.094;2023-03-23T01:02:17;15.80;34.20
18287;DHT22;9269;50.838;12.094;2023-03-23T01:04:47;15.90;34.10
18287;DHT22;9269;50.838;12.094;2023-03-23T01:07:22;15.90;34.20
18287;DHT22;9269;50.838;12.094;2023-03-23T01:09:54;15.90;34.30
18287;DHT22;9269;50.838;12.094;2023-03-23T01:12:25;15.80;34.00
18287;DHT22;9269;50.838;12.094;2023-03-23T01:14:53;15.90;34.20
18287;DHT22;9269;50.838;12.094;2023-03-23T01:17:22;15.90;34.00
18287;DHT22;9269;50.838;12.094;2023-03-23T01:19:53;15.90;34.20
18287;DHT22;9269;50.838;12.094;2023-03-23T01:22:22;15.90;34.00
18287;DHT22;9269;50.838;12.094;2023-03-23T01:24:50;15.80;34.10
18287;DHT22;9269;50.838;12.094;2023-03-23T01:27:17;15.90;34.00
18287;DHT22;9269;50.838;12.094;2023-03-23T01:29:46;15.90;33.90
18287;DHT22;9269;50.838;12.094;2023-03-23T01:32:14;15.90;34.00
18287;DHT22;9269;50.838;12.094;2023-03-23T01:34:41;15.90;34.20
18287;DHT22;9269;50.838;12.094;2023-03-23T01:37:18;15.90;34.00
18287;DHT22;9269;50.838;12.094;2023-03-23T01:39:53;15.90;34.10
18287;DHT22;9269;50.838;12.094;2023-03-23T01:42:23;15.90;33.70
18287;DHT22;9269;50.838;12.094;2023-03-23T01:45:28;16.00;33.20
18287;DHT22;9269;50.838;12.094;2023-03-23T01:48:05;16.00;34.00
18287;DHT22;9269;50.838;12.094;2023-03-23T01:50:39;15.90;34.10
18287;DHT22;9269;50.838;12.094;2023-03-23T01:53:10;15.90;34.10
18287;DHT22;9269;50.838;12.094;2023-03-23T01:55:40;15.80;33.80
18287;DHT22;9269;50.838;12.094;2023-03-23T01:58:09;15.80;34.00
18287;DHT22;9269;50.838;12.094;2023-03-23T02:00:38;15.80;33.70
18287;DHT22;9269;50.838;12.094;2023-03-23T02:03:12;15.80;34.10
18287;DHT22;9269;50.838;12.094;2023-03-23T02:05:49;15.80;33.90
18287;DHT22;9269;50.838;12.094;2023-03-23T02:08:20;15.70;34.10
18287;DHT22;9269;50.838;12.094;2023-03-23T02:10:52;15.70;34.10
18287;DHT22;9269;50.838;12.094;2023-03-23T02:13:30;15.70;34.40
18287;DHT22;9269;50.838;12.094;2023-03-23T02:16:04;15.70;34.60
18287;DHT22;9269;50.838;12.094;2023-03-23T02:18:48;15.70;34.20
18287;DHT22;9269;50.838;12.094;2023-03-23T02:21:34;15.70;34.50
18287;DHT22;9269;50.838;12.094;2023-03-23T02:24:49;15.50;34.30
18287;DHT22;9269;50.838;12.094;2023-03-23T02:28:01;15.60;34.30
18287;DHT22;9269;50.838;12.094;2023-03-23T02:31:26;15.60;34.70
18287;DHT22;9269;50.838;12.094;2023-03-23T02:34:18;15.60;34.90
18287;DHT22;9269;50.838;12.094;2023-03-23T02:37:10;15.50;34.60
18287;DHT22;9269;50.838;12.094;2023-03-23T02:39:49;15.50;34.70
18287;DHT22;9269;50.838;12.094;2023-03-23T02:42:40;15.50;34.80
18287;DHT22;9269;50.838;12.094;2023-03-23T02:45:29;15.50;35.20
18287;DHT22;9269;50.838;12.094;2023-03-23T02:48:08;15.50;35.30
18287;DHT22;9269;50.838;12.094;2023-03-23T02:50:43;15.50;35.20
18287;DHT22;9269;50.838;12.094;2023-03-23T02:53:14;15.40;36.60
18287;DHT22;9269;50.838;12.094;2023-03-23T02:55:47;15.30;37.10
18287;DHT22;9269;50.838;12.094;2023-03-23T02:58:15;15.40;36.60
18287;DHT22;9269;50.838;12.094;2023-03-23T03:00:44;15.40;36.80
18287;DHT22;9269;50.838;12.094;2023-03-23T03:03:17;15.40;36.70
18287;DHT22;9269;50.838;12.094;2023-03-23T03:05:54;15.40;37.10
18287;DHT22;9269;50.838;12.094;2023-03-23T03:08:30;15.40;35.90
18287;DHT22;9269;50.838;12.094;2023-03-23T03:11:04;15.40;37.20
18287;DHT22;9269;50.838;12.094;2023-03-23T03:13:42;15.40;37.20
18287;DHT22;9269;50.838;12.094;2023-03-23T03:16:18;15.40;36.00
18287;DHT22;9269;50.838;12.094;2023-03-23T03:18:52;15.40;37.60
18287;DHT22;9269;50.838;12.094;2023-03-23T03:23:54;15.30;37.70
18287;DHT22;9269;50.838;12.094;2023-03-23T03:26:26;15.40;37.60
18287;DHT22;9269;50.838;12.094;2023-03-23T03:28:54;15.40;37.80
18287;DHT22;9269;50.838;12.094;2023-03-23T03:31:23;15.50;36.80
18287;DHT22;9269;50.838;12.094;2023-03-23T03:33:53;15.40;37.90
18287;DHT22;9269;50.838;12.094;2023-03-23T03:36:26;15.50;36.80
18287;DHT22;9269;50.838;12.094;2023-03-23T03:38:55;15.40;37.90
18287;DHT22;9269;50.838;12.094;2023-03-23T03:41:23;15.50;36.90
18287;DHT22;9269;50.838;12.094;2023-03-23T03:43:51;15.50;36.70
18287;DHT22;9269;50.838;12.094;2023-03-23T03:46:18;15.40;38.20
18287;DHT22;9269;50.838;12.094;2023-03-23T03:48:45;15.40;36.90
18287;DHT22;9269;50.838;12.094;2023-03-23T03:51:12;15.50;36.90
18287;DHT22;9269;50.838;12.094;2023-03-23T03:53:41;15.60;36.70
18287;DHT22;9269;50.838;12.094;2023-03-23T03:56:08;15.60;36.50
18287;DHT22;9269;50.838;12.094;2023-03-23T03:58:37;15.60;36.50
18287;DHT22;9269;50.838;12.094;2023-03-23T04:01:04;15.60;36.80
18287;DHT22;9269;50.838;12.094;2023-03-23T04:03:32;15.50;36.50
18287;DHT22;9269;50.838;12.094;2023-03-23T04:05:59;15.60;36.70
18287;DHT22;9269;50.838;12.094;2023-03-23T04:08:26;15.60;36.50
18287;DHT22;9269;50.838;12.094;2023-03-23T04:10:55;15.60;36.50
18287;DHT22;9269;50.838;12.094;2023-03-23T04:13:23;15.60;36.60
18287;DHT22;9269;50.838;12.094;2023-03-23T04:15:50;15.50;36.60
18287;DHT22;9269;50.838;12.094;2023-03-23T04:18:19;15.70;36.60
18287;DHT22;9269;50.838;12.094;2023-03-23T04:20:48;15.50;36.30
18287;DHT22;9269;50.838;12.094;2023-03-23T04:23:16;15.50;36.60
18287;DHT22;9269;50.838;12.094;2023-03-23T04:25:47;15.60;36.80
18287;DHT22;9269;50.838;12.094;2023-03-23T04:28:16;15.60;36.50
18287;DHT22;9269;50.838;12.094;2023-03-23T04:30:45;15.60;36.80
18287;DHT22;9269;50.838;12.094;2023-03-23T04:33:15;15.60;36.60
18287;DHT22;9269;50.838;12.094;2023-03-23T04:35:43;15.60;36.70
18287;DHT22;9269;50.838;12.094;2023-03-23T04:38:12;15.50;36.60
18287;DHT22;9269;50.838;12.094;2023-03-23T04:40:41;15.50;36.50
18287;DHT22;9269;50.838;12.094;2023-03-23T04:43:09;15.50;36.50
18287;DHT22;9269;50.838;12.094;2023-03-23T04:45:40;15.50;36.40
18287;DHT22;9269;50.838;12.094;2023-03-23T04:48:12;15.50;37.00
18287;DHT22;9269;50.838;12.094;2023-03-23T04:50:39;15.50;36.60
18287;DHT22;9269;50.838;12.094;2023-03-23T04:53:07;15.50;36.30
18287;DHT22;9269;50.838;12.094;2023-03-23T04:55:35;15.50;36.20
18287;DHT22;9269;50.838;12.094;2023-03-23T04:58:06;15.60;36.50
18287;DHT22;9269;50.838;12.094;2023-03-23T05:00:34;15.60;36.70
18287;DHT22;9269;50.838;12.094;2023-03-23T05:03:03;15.50;36.50
18287;DHT22;9269;50.838;12.094;2023-03-23T05:05:34;15.50;36.20
18287;DHT22;9269;50.838;12.094;2023-03-23T05:08:01;15.50;36.50
18287;DHT22;9269;50.838;12.094;2023-03-23T05:10:29;15.50;36.30
18287;DHT22;9269;50.838;12.094;2023-03-23T05:12:57;15.50;36.50
18287;DHT22;9269;50.838;12.094;2023-03-23T05:15:26;15.50;36.60
18287;DHT22;9269;50.838;12.094;2023-03-23T05:17:53;15.50;36.60
18287;DHT22;9269;50.838;12.094;2023-03-23T05:20:23;15.50;36.80
18287;DHT22;9269;50.838;12.094;2023-03-23T05:22:51;15.50;36.70
18287;DHT22;9269;50.838;12.094;2023-03-23T05:25:19;15.50;36.90
18287;DHT22;9269;50.838;12.094;2023-03-23T05:27:47;15.50;36.80
18287;DHT22;9269;50.838;12.094;2023-03-23T05:30:20;15.60;36.90
18287;DHT22;9269;50.838;12.094;2023-03-23T05:32:48;15.60;36.60
18287;DHT22;9269;50.838;12.094;2023-03-23T05:35:17;15.60;36.80
18287;DHT22;9269;50.838;12.094;2023-03-23T05:37:46;15.60;36.90
18287;DHT22;9269;50.838;12.094;2023-03-23T05:40:14;15.60;36.30
18287;DHT22;9269;50.838;12.094;2023-03-23T05:42:41;15.60;36.80
18287;DHT22;9269;50.838;12.094;2023-03-23T05:45:12;15.60;36.70
18287;DHT22;9269;50.838;12.094;2023-03-23T05:47:39;15.70;36.70
18287;DHT22;9269;50.838;12.094;2023-03-23T05:50:08;15.60;36.60
18287;DHT22;9269;50.838;12.094;2023-03-23T05:52:38;15.70;37.10
18287;DHT22;9269;50.838;12.094;2023-03-23T05:55:08;15.60;37.00
18287;DHT22;9269;50.838;12.094;2023-03-23T05:57:36;15.70;37.00
18287;DHT22;9269;50.838;12.094;2023-03-23T06:00:04;15.60;37.00
18287;DHT22;9269;50.838;12.094;2023-03-23T06:02:40;15.80;36.60
18287;DHT22;9269;50.838;12.094;2023-03-23T06:05:09;15.70;36.90
18287;DHT22;9269;50.838;12.094;2023-03-23T06:07:37;15.80;36.80
18287;DHT22;9269;50.838;12.094;2023-03-23T06:10:08;15.80;36.80
18287;DHT22;9269;50.838;12.094;2023-03-23T06:12:36;15.80;36.50
18287;DHT22;9269;50.838;12.094;2023-03-23T06:15:06;15.90;36.40
18287;DHT22;9269;50.838;12.094;2023-03-23T06:17:35;15.90;36.70
18287;DHT22;9269;50.838;12.094;2023-03-23T06:20:03;15.90;36.70
18287;DHT22;9269;50.838;12.094;2023-03-23T06:22:36;16.00;36.40
18287;DHT22;9269;50.838;12.094;2023-03-23T06:25:04;16.00;36.70
18287;DHT22;9269;50.838;12.094;2023-03-23T06:27:33;15.90;36.50
18287;DHT22;9269;50.838;12.094;2023-03-23T06:30:01;16.00;36.60
18287;DHT22;9269;50.838;12.094;2023-03-23T06:32:30;16.00;36.40
18287;DHT22;9269;50.838;12.094;2023-03-23T06:34:58;16.10;36.50
18287;DHT22;9269;50.838;12.094;2023-03-23T06:37:25;16.00;36.70
18287;DHT22;9269;50.838;12.094;2023-03-23T06:39:53;16.10;36.80
18287;DHT22;9269;50.838;12.094;2023-03-23T06:42:21;16.00;36.80
18287;DHT22;9269;50.838;12.094;2023-03-23T06:44:51;16.10;36.60
18287;DHT22;9269;50.838;12.094;2023-03-23T06:47:19;16.00;36.50
18287;DHT22;9269;50.838;12.094;2023-03-23T06:49:47;16.00;36.80
18287;DHT22;9269;50.838;12.094;2023-03-23T06:52:14;16.00;36.80
18287;DHT22;9269;50.838;12.094;2023-03-23T06:54:41;16.00;37.00
18287;DHT22;9269;50.838;12.094;2023-03-23T06:57:08;16.00;37.10
18287;DHT22;9269;50.838;12.094;2023-03-23T06:59:36;16.00;37.10
18287;DHT22;9269;50.838;12.094;2023-03-23T07:02:05;16.00;37.30
18287;DHT22;9269;50.838;12.094;2023-03-23T07:04:33;16.00;37.40
18287;DHT22;9269;50.838;12.094;2023-03-23T07:07:00;15.90;37.60
18287;DHT22;9269;50.838;12.094;2023-03-23T07:09:27;16.00;38.00
18287;DHT22;9269;50.838;12.094;2023-03-23T07:11:54;16.00;38.10
18287;DHT22;9269;50.838;12.094;2023-03-23T07:14:22;15.90;38.60
18287;DHT22;9269;50.838;12.094;2023-03-23T07:16:50;15.90;38.60
18287;DHT22;9269;50.838;12.094;2023-03-23T07:19:18;16.00;38.90
18287;DHT22;9269;50.838;12.094;2023-03-23T07:21:46;15.90;39.20
18287;DHT22;9269;50.838;12.094;2023-03-23T07:24:13;15.90;38.80
18287;DHT22;9269;50.838;12.094;2023-03-23T07:26:41;15.90;39.40
18287;DHT22;9269;50.838;12.094;2023-03-23T07:29:09;15.90;39.80
18287;DHT22;9269;50.838;12.094;2023-03-23T07:31:36;15.90;39.80
18287;DHT22;9269;50.838;12.094;2023-03-23T07:34:03;16.00;39.90
18287;DHT22;9269;50.838;12.094;2023-03-23T07:36:33;16.00;39.90
18287;DHT22;9269;50.838;12.094;2023-03-23T07:39:03;16.00;39.80
18287;DHT22;9269;50.838;12.094;2023-03-23T07:41:31;16.00;39.90
18287;DHT22;9269;50.838;12.094;2023-03-23T07:43:59;16.10;39.70
18287;DHT22;9269;50.838;12.094;2023-03-23T07:46:26;16.00;40.20
18287;DHT22;9269;50.838;12.094;2023-03-23T07:48:53;16.00;40.10
18287;DHT22;9269;50.838;12.094;2023-03-23T07:51:20;16.00;40.10
18287;DHT22;9269;50.838;12.094;2023-03-23T07:53:50;16.10;40.20
18287;DHT22;9269;50.838;12.094;2023-03-23T07:56:17;16.10;40.70
18287;DHT22;9269;50.838;12.094;2023-03-23T07:58:46;16.10;40.80
18287;DHT22;9269;50.838;12.094;2023-03-23T08:01:13;16.20;40.60
18287;DHT22;9269;50.838;12.094;2023-03-23T08:03:41;16.20;40.50
18287;DHT22;9269;50.838;12.094;2023-03-23T08:06:10;16.20;41.20
18287;DHT22;9269;50.838;12.094;2023-03-23T08:08:37;16.20;40.80
18287;DHT22;9269;50.838;12.094;2023-03-23T08:11:08;16.20;41.10
18287;DHT22;9269;50.838;12.094;2023-03-23T08:13:35;16.20;40.80
18287;DHT22;9269;50.838;12.094;2023-03-23T08:16:02;16.30;41.00
18287;DHT22;9269;50.838;12.094;2023-03-23T08:18:31;16.30;41.00
18287;DHT22;9269;50.838;12.094;2023-03-23T08:21:01;16.30;40.90
18287;DHT22;9269;50.838;12.094;2023-03-23T08:23:30;16.30;40.90
18287;DHT22;9269;50.838;12.094;2023-03-23T08:25:57;16.40;41.00
18287;DHT22;9269;50.838;12.094;2023-03-23T08:28:26;16.30;40.70
18287;DHT22;9269;50.838;12.094;2023-03-23T08:30:54;16.40;41.00
18287;DHT22;9269;50.838;12.094;2023-03-23T08:33:23;16.40;40.60
18287;DHT22;9269;50.838;12.094;2023-03-23T08:35:55;16.60;40.80
18287;DHT22;9269;50.838;12.094;2023-03-23T08:38:23;16.60;40.80
18287;DHT22;9269;50.838;12.094;2023-03-23T08:40:50;16.60;41.10
18287;DHT22;9269;50.838;12.094;2023-03-23T08:43:18;16.60;40.60
18287;DHT22;9269;50.838;12.094;2023-03-23T08:45:47;16.60;40.80
18287;DHT22;9269;50.838;12.094;2023-03-23T08:48:14;16.70;40.60
18287;DHT22;9269;50.838;12.094;2023-03-23T08:50:42;16.70;40.80
18287;DHT22;9269;50.838;12.094;2023-03-23T08:53:10;16.70;41.10
18287;DHT22;9269;50.838;12.094;2023-03-23T08:55:38;16.80;40.80
18287;DHT22;9269;50.838;12.094;2023-03-23T08:58:06;16.80;40.60
18287;DHT22;9269;50.838;12.094;2023-03-23T09:00:35;16.90;41.10
18287;DHT22;9269;50.838;12.094;2023-03-23T09:03:04;17.10;40.80
18287;DHT22;9269;50.838;12.094;2023-03-23T09:05:31;17.10;40.50
18287;DHT22;9269;50.838;12.094;2023-03-23T09:07:59;17.00;40.50
18287;DHT22;9269;50.838;12.094;2023-03-23T09:10:27;17.10;40.50
18287;DHT22;9269;50.838;12.094;2023-03-23T09:12:56;17.20;40.70
18287;DHT22;9269;50.838;12.094;2023-03-23T09:15:24;17.20;40.80
18287;DHT22;9269;50.838;12.094;2023-03-23T09:17:53;17.30;40.70
18287;DHT22;9269;50.838;12.094;2023-03-23T09:20:25;17.40;40.80
18287;DHT22;9269;50.838;12.094;2023-03-23T09:22:54;17.40;40.60
18287;DHT22;9269;50.838;12.094;2023-03-23T09:25:24;17.60;40.70
18287;DHT22;9269;50.838;12.094;2023-03-23T09:27:54;17.70;40.70
18287;DHT22;9269;50.838;12.094;2023-03-23T09:30:23;17.80;40.70
18287;DHT22;9269;50.838;12.094;2023-03-23T09:32:54;17.90;40.50
18287;DHT22;9269;50.838;12.094;2023-03-23T09:35:23;18.00;40.20
18287;DHT22;9269;50.838;12.094;2023-03-23T09:37:52;18.10;40.00
18287;DHT22;9269;50.838;12.094;2023-03-23T09:40:21;18.00;40.20
18287;DHT22;9269;50.838;12.094;2023-03-23T09:43:02;18.10;39.80
18287;DHT22;9269;50.838;12.094;2023-03-23T09:45:37;18.10;39.60
18287;DHT22;9269;50.838;12.094;2023-03-23T09:48:37;18.10;39.90
18287;DHT22;9269;50.838;12.094;2023-03-23T09:51:16;18.10;39.70
18287;DHT22;9269;50.838;12.094;2023-03-23T09:53:51;18.20;38.30
18287;DHT22;9269;50.838;12.094;2023-03-23T09:56:20;18.20;38.20
18287;DHT22;9269;50.838;12.094;2023-03-23T09:58:55;18.20;38.20
18287;DHT22;9269;50.838;12.094;2023-03-23T10:01:26;18.20;38.40
18287;DHT22;9269;50.838;12.094;2023-03-23T10:03:59;18.30;38.20
18287;DHT22;9269;50.838;12.094;2023-03-23T10:06:30;18.30;38.40
18287;DHT22;9269;50.838;12.094;2023-03-23T10:09:00;18.40;38.00
18287;DHT22;9269;50.838;12.094;2023-03-23T10:11:38;18.40;38.00
18287;DHT22;9269;50.838;12.094;2023-03-23T10:14:15;18.50;38.10
18287;DHT22;9269;50.838;12.094;2023-03-23T10:16:52;18.60;37.80
18287;DHT22;9269;50.838;12.094;2023-03-23T10:19:29;18.70;38.00
18287;DHT22;9269;50.838;12.094;2023-03-23T10:22:03;18.80;37.60
18287;DHT22;9269;50.838;12.094;2023-03-23T10:24:36;18.80;37.70
18287;DHT22;9269;50.838;12.094;2023-03-23T10:27:15;18.80;37.40
18287;DHT22;9269;50.838;12.094;2023-03-23T10:29:48;18.80;37.40
18287;DHT22;9269;50.838;12.094;2023-03-23T10:32:39;18.80;37.30
18287;DHT22;9269;50.838;12.094;2023-03-23T10:35:12;18.70;36.80
18287;DHT22;9269;50.838;12.094;2023-03-23T10:37:46;18.70;37.10
18287;DHT22;9269;50.838;12.094;2023-03-23T10:40:17;18.70;37.20
18287;DHT22;9269;50.838;12.094;2023-03-23T10:42:45;18.80;37.30
18287;DHT22;9269;50.838;12.094;2023-03-23T10:45:17;18.70;37.40
18287;DHT22;9269;50.838;12.094;2023-03-23T10:47:49;18.70;37.20
18287;DHT22;9269;50.838;12.094;2023-03-23T10:50:22;18.70;37.60
18287;DHT22;9269;50.838;12.094;2023-03-23T10:52:52;18.70;37.60
18287;DHT22;9269;50.838;12.094;2023-03-23T10:55:24;18.70;37.70
18287;DHT22;9269;50.838;12.094;2023-03-23T10:58:03;18.60;37.60
18287;DHT22;9269;50.838;12.094;2023-03-23T11:00:33;18.50;37.70
18287;DHT22;9269;50.838;12.094;2023-03-23T11:03:02;18.40;38.10
18287;DHT22;9269;50.838;12.094;2023-03-23T11:05:36;18.50;38.40
18287;DHT22;9269;50.838;12.094;2023-03-23T11:08:13;18.40;38.50
18287;DHT22;9269;50.838;12.094;2023-03-23T11:10:47;18.40;38.90
18287;DHT22;9269;50.838;12.094;2023-03-23T11:13:17;18.40;38.80
18287;DHT22;9269;50.838;12.094;2023-03-23T11:15:47;18.50;38.40
18287;DHT22;9269;50.838;12.094;2023-03-23T11:18:19;18.70;38.80
18287;DHT22;9269;50.838;12.094;2023-03-23T11:20:50;18.60;39.10
18287;DHT22;9269;50.838;12.094;2023-03-23T11:23:23;18.70;38.80
18287;DHT22;9269;50.838;12.094;2023-03-23T11:25:55;18.70;38.90
18287;DHT22;9269;50.838;12.094;2023-03-23T11:28:29;18.80;38.70
18287;DHT22;9269;50.838;12.094;2023-03-23T11:31:00;18.80;38.90
18287;DHT22;9269;50.838;12.094;2023-03-23T11:33:36;18.90;38.50
18287;DHT22;9269;50.838;12.094;2023-03-23T11:36:06;18.80;38.50
18287;DHT22;9269;50.838;12.094;2023-03-23T11:38:36;18.80;38.50
18287;DHT22;9269;50.838;12.094;2023-03-23T11:41:10;18.90;38.60
18287;DHT22;9269;50.838;12.094;2023-03-23T11:43:41;18.90;38.50
18287;DHT22;9269;50.838;12.094;2023-03-23T11:46:18;18.90;38.40
18287;DHT22;9269;50.838;12.094;2023-03-23T11:48:52;19.00;38.60
18287;DHT22;9269;50.838;12.094;2023-03-23T11:51:27;19.00;38.30
18287;DHT22;9269;50.838;12.094;2023-03-23T11:54:09;19.10;38.30
18287;DHT22;9269;50.838;12.094;2023-03-23T11:56:42;19.10;37.90
18287;DHT22;9269;50.838;12.094;2023-03-23T11:59:12;19.00;37.90
18287;DHT22;9269;50.838;12.094;2023-03-23T12:01:47;19.10;37.70
18287;DHT22;9269;50.838;12.094;2023-03-23T12:04:56;19.10;37.70
18287;DHT22;9269;50.838;12.094;2023-03-23T12:07:45;19.10;37.40
18287;DHT22;9269;50.838;12.094;2023-03-23T12:10:25;19.10;37.40
18287;DHT22;9269;50.838;12.094;2023-03-23T12:13:00;19.10;37.10
18287;DHT22;9269;50.838;12.094;2023-03-23T12:15:38;19.10;37.30
18287;DHT22;9269;50.838;12.094;2023-03-23T12:18:17;19.10;37.10
18287;DHT22;9269;50.838;12.094;2023-03-23T12:20:58;19.20;36.80
18287;DHT22;9269;50.838;12.094;2023-03-23T12:23:35;19.30;36.50
18287;DHT22;9269;50.838;12.094;2023-03-23T12:26:19;19.30;36.60
18287;DHT22;9269;50.838;12.094;2023-03-23T12:29:13;19.10;36.20
18287;DHT22;9269;50.838;12.094;2023-03-23T12:31:54;19.10;35.90
18287;DHT22;9269;50.838;12.094;2023-03-23T12:34:30;19.00;35.80
18287;DHT22;9269;50.838;12.094;2023-03-23T12:37:10;19.00;35.50
18287;DHT22;9269;50.838;12.094;2023-03-23T12:39:57;18.90;35.30
18287;DHT22;9269;50.838;12.094;2023-03-23T12:42:45;18.90;35.40
18287;DHT22;9269;50.838;12.094;2023-03-23T12:45:21;18.90;35.20
18287;DHT22;9269;50.838;12.094;2023-03-23T12:47:55;19.00;35.00
18287;DHT22;9269;50.838;12.094;2023-03-23T12:50:28;19.00;34.70
18287;DHT22;9269;50.838;12.094;2023-03-23T12:53:01;19.10;34.20
18287;DHT22;9269;50.838;12.094;2023-03-23T12:55:37;19.00;33.90
18287;DHT22;9269;50.838;12.094;2023-03-23T12:58:12;19.00;33.90
18287;DHT22;9269;50.838;12.094;2023-03-23T13:00:54;19.00;34.30
18287;DHT22;9269;50.838;12.094;2023-03-23T13:03:27;19.00;34.30
18287;DHT22;9269;50.838;12.094;2023-03-23T13:06:03;18.90;33.70
18287;DHT22;9269;50.838;12.094;2023-03-23T13:08:36;18.90;34.00
18287;DHT22;9269;50.838;12.094;2023-03-23T13:11:08;18.90;33.90
18287;DHT22;9269;50.838;12.094;2023-03-23T13:13:45;18.90;34.00
18287;DHT22;9269;50.838;12.094;2023-03-23T13:16:21;19.10;34.10
18287;DHT22;9269;50.838;12.094;2023-03-23T13:19:00;19.10;33.90
18287;DHT22;9269;50.838;12.094;2023-03-23T13:21:31;19.20;34.20
18287;DHT22;9269;50.838;12.094;2023-03-23T13:24:01;19.40;34.40
18287;DHT22;9269;50.838;12.094;2023-03-23T13:26:30;19.60;34.20
18287;DHT22;9269;50.838;12.094;2023-03-23T13:29:00;19.80;34.00
18287;DHT22;9269;50.838;12.094;2023-03-23T13:31:32;19.90;33.10
18287;DHT22;9269;50.838;12.094;2023-03-23T13:34:05;19.70;33.20
18287;DHT22;9269;50.838;12.094;2023-03-23T13:36:35;19.70;33.10
18287;DHT22;9269;50.838;12.094;2023-03-23T13:39:06;19.70;33.30
18287;DHT22;9269;50.838;12.094;2023-03-23T13:41:46;19.60;33.00
18287;DHT22;9269;50.838;12.094;2023-03-23T13:44:22;19.60;33.40
18287;DHT22;9269;50.838;12.094;2023-03-23T13:47:07;19.70;33.60
18287;DHT22;9269;50.838;12.094;2023-03-23T13:49:46;19.70;33.90
18287;DHT22;9269;50.838;12.094;2023-03-23T13:52:18;19.80;33.90
18287;DHT22;9269;50.838;12.094;2023-03-23T13:54:50;19.70;33.50
18287;DHT22;9269;50.838;12.094;2023-03-23T13:57:33;19.70;33.70
18287;DHT22;9269;50.838;12.094;2023-03-23T14:00:24;19.70;33.60
18287;DHT22;9269;50.838;12.094;2023-03-23T14:02:59;19.70;34.30
18287;DHT22;9269;50.838;12.094;2023-03-23T14:05:38;19.70;34.00
18287;DHT22;9269;50.838;12.094;2023-03-23T14:08:20;19.60;34.00
18287;DHT22;9269;50.838;12.094;2023-03-23T14:10:54;19.60;33.90
18287;DHT22;9269;50.838;12.094;2023-03-23T14:13:25;19.50;34.10
18287;DHT22;9269;50.838;12.094;2023-03-23T14:15:59;19.50;34.10
18287;DHT22;9269;50.838;12.094;2023-03-23T14:18:32;19.50;33.70
18287;DHT22;9269;50.838;12.094;2023-03-23T14:21:03;19.70;33.70
18287;DHT22;9269;50.838;12.094;2023-03-23T14:23:33;19.60;33.80
18287;DHT22;9269;50.838;12.094;2023-03-23T14:26:02;19.60;33.20
18287;DHT22;9269;50.838;12.094;2023-03-23T14:28:37;19.50;33.20
18287;DHT22;9269;50.838;12.094;2023-03-23T14:31:16;19.40;33.30
18287;DHT22;9269;50.838;12.094;2023-03-23T14:33:45;19.30;33.50
18287;DHT22;9269;50.838;12.094;2023-03-23T14:36:14;19.20;33.60
18287;DHT22;9269;50.838;12.094;2023-03-23T14:38:41;19.30;34.20
18287;DHT22;9269;50.838;12.094;2023-03-23T14:41:11;19.10;34.30
18287;DHT22;9269;50.838;12.094;2023-03-23T14:43:39;19.10;34.80
18287;DHT22;9269;50.838;12.094;2023-03-23T14:46:10;19.10;35.10
18287;DHT22;9269;50.838;12.094;2023-03-23T14:48:39;19.00;34.90
18287;DHT22;9269;50.838;12.094;2023-03-23T14:51:07;19.00;35.00
18287;DHT22;9269;50.838;12.094;2023-03-23T14:53:43;19.00;35.50
18287;DHT22;9269;50.838;12.094;2023-03-23T14:56:13;18.90;35.30
18287;DHT22;9269;50.838;12.094;2023-03-23T14:58:43;18.80;35.80
18287;DHT22;9269;50.838;12.094;2023-03-23T15:01:16;18.80;35.90
18287;DHT22;9269;50.838;12.094;2023-03-23T15:03:52;18.80;35.90
18287;DHT22;9269;50.838;12.094;2023-03-23T15:06:22;18.80;36.00
18287;DHT22;9269;50.838;12.094;2023-03-23T15:08:52;18.70;36.20
18287;DHT22;9269;50.838;12.094;2023-03-23T15:11:24;18.60;36.00
18287;DHT22;9269;50.838;12.094;2023-03-23T15:13:54;18.60;36.50
18287;DHT22;9269;50.838;12.094;2023-03-23T15:16:27;18.50;36.50
18287;DHT22;9269;50.838;12.094;2023-03-23T15:18:56;18.40;37.10
18287;DHT22;9269;50.838;12.094;2023-03-23T15:21:28;18.40;36.90
18287;DHT22;9269;50.838;12.094;2023-03-23T15:23:56;18.40;36.90
18287;DHT22;9269;50.838;12.094;2023-03-23T15:26:30;18.40;36.60
18287;DHT22;9269;50.838;12.094;2023-03-23T15:29:08;18.30;36.90
18287;DHT22;9269;50.838;12.094;2023-03-23T15:31:40;18.30;36.90
18287;DHT22;9269;50.838;12.094;2023-03-23T15:34:15;18.30;37.10
18287;DHT22;9269;50.838;12.094;2023-03-23T15:36:43;18.30;37.00
18287;DHT22;9269;50.838;12.094;2023-03-23T15:39:12;18.40;36.80
18287;DHT22;9269;50.838;12.094;2023-03-23T15:41:47;18.30;36.60
18287;DHT22;9269;50.838;12.094;2023-03-23T15:44:30;18.40;37.10
18287;DHT22;9269;50.838;12.094;2023-03-23T15:47:19;18.40;37.10
18287;DHT22;9269;50.838;12.094;2023-03-23T15:49:58;18.40;37.30
18287;DHT22;9269;50.838;12.094;2023-03-23T15:52:28;18.30;37.30
18287;DHT22;9269;50.838;12.094;2023-03-23T15:54:56;18.30;37.10
18287;DHT22;9269;50.838;12.094;2023-03-23T15:57:24;18.30;37.50
18287;DHT22;9269;50.838;12.094;2023-03-23T15:59:51;18.20;37.60
18287;DHT22;9269;50.838;12.094;2023-03-23T16:02:22;18.20;37.80